createdAt,value
2018-10-04T00:02:18.754Z,10.58
2018-10-04T00:04:48.708Z,10.62
2018-10-04T00:07:18.490Z,10.43
2018-10-04T00:09:48.290Z,10.43
2018-10-04T00:12:18.072Z,10.63
2018-10-04T00:14:47.842Z,10.73
2018-10-04T00:17:17.648Z,10.92
2018-10-04T00:19:47.411Z,10.96
2018-10-04T00:22:17.220Z,11.10
2018-10-04T00:24:47.045Z,11.13
2018-10-04T00:27:16.802Z,11.14
2018-10-04T00:29:47.458Z,11.11
2018-10-04T00:32:17.273Z,11.10
2018-10-04T00:34:47.101Z,11.16
2018-10-04T00:37:16.870Z,11.31
2018-10-04T00:39:46.668Z,11.22
2018-10-04T00:42:16.558Z,11.23
2018-10-04T00:44:46.370Z,11.37
2018-10-04T00:47:17.158Z,11.36
2018-10-04T00:49:49.298Z,11.10
2018-10-04T00:52:19.111Z,10.74
2018-10-04T00:54:48.986Z,10.63
2018-10-04T00:57:18.786Z,10.62
2018-10-04T00:59:48.555Z,10.52
2018-10-04T01:02:18.307Z,10.49
2018-10-04T01:04:48.111Z,10.38
2018-10-04T01:07:18.001Z,10.37
2018-10-04T01:09:47.767Z,10.29
2018-10-04T01:12:17.560Z,10.18
2018-10-04T01:14:47.345Z,9.94
2018-10-04T01:17:17.148Z,9.80
2018-10-04T01:19:47.203Z,9.75
2018-10-04T01:22:17.041Z,9.65
2018-10-04T01:24:46.884Z,9.58
2018-10-04T01:27:16.661Z,9.47
2018-10-04T01:29:46.579Z,9.46
2018-10-04T01:32:16.371Z,9.41
2018-10-04T01:34:46.147Z,9.38
2018-10-04T01:37:15.951Z,9.29
2018-10-04T01:39:45.771Z,9.44
2018-10-04T01:42:15.691Z,9.47
2018-10-04T01:44:45.467Z,9.21
2018-10-04T01:47:15.249Z,9.26
2018-10-04T01:49:45.045Z,9.26
2018-10-04T01:52:14.936Z,9.23
2018-10-04T01:54:44.725Z,9.22
2018-10-04T01:57:14.511Z,9.33
2018-10-04T01:59:44.296Z,9.31
2018-10-04T02:02:14.088Z,9.28
2018-10-04T02:04:43.897Z,9.08
2018-10-04T02:07:13.847Z,9.06
2018-10-04T02:09:43.815Z,9.00
2018-10-04T02:12:13.602Z,8.89
2018-10-04T02:14:43.391Z,8.82
2018-10-04T02:17:13.203Z,8.78
2018-10-04T02:19:43.037Z,8.69
2018-10-04T02:22:12.817Z,8.69
2018-10-04T02:24:42.646Z,8.70
2018-10-04T02:27:12.582Z,8.65
2018-10-04T02:29:42.407Z,8.59
2018-10-04T02:32:12.211Z,8.52
2018-10-04T02:34:42.162Z,8.43
2018-10-04T02:37:11.912Z,8.39
2018-10-04T02:39:41.750Z,8.37
2018-10-04T02:42:11.506Z,8.35
2018-10-04T02:44:41.265Z,8.29
2018-10-04T02:47:11.180Z,8.27
2018-10-04T02:49:40.961Z,8.26
2018-10-04T02:52:10.768Z,8.13
2018-10-04T02:54:44.624Z,8.09
2018-10-04T02:57:14.424Z,8.06
2018-10-04T02:59:44.184Z,8.08
2018-10-04T03:02:13.940Z,8.15
2018-10-04T03:04:43.715Z,8.21
2018-10-04T03:07:13.566Z,8.35
2018-10-04T03:09:43.332Z,8.36
2018-10-04T03:12:13.091Z,8.37
2018-10-04T03:14:42.830Z,8.36
2018-10-04T03:17:12.583Z,8.36
2018-10-04T03:19:42.375Z,8.37
2018-10-04T03:22:12.314Z,8.48
2018-10-04T03:24:42.081Z,8.53
2018-10-04T03:27:11.834Z,8.58
2018-10-04T03:29:41.618Z,8.54
2018-10-04T03:32:11.519Z,8.57
2018-10-04T03:34:41.508Z,8.51
2018-10-04T03:37:11.345Z,8.55
2018-10-04T03:39:41.124Z,8.56
2018-10-04T03:42:10.848Z,8.58
2018-10-04T03:44:40.688Z,8.58
2018-10-04T03:47:10.502Z,8.56
2018-10-04T03:49:40.256Z,8.55
2018-10-04T03:52:10.123Z,8.57
2018-10-04T03:54:39.917Z,8.55
2018-10-04T03:57:09.640Z,8.61
2018-10-04T03:59:39.374Z,8.60
2018-10-04T04:02:09.117Z,8.59
2018-10-04T04:04:39.021Z,8.68
2018-10-04T04:07:08.828Z,8.74
2018-10-04T04:09:38.636Z,8.78
2018-10-04T04:12:08.800Z,8.86
2018-10-04T04:14:38.630Z,8.90
2018-10-04T04:17:08.559Z,8.94
2018-10-04T04:19:38.368Z,8.94
2018-10-04T04:22:08.310Z,8.98
2018-10-04T04:24:38.611Z,8.99
2018-10-04T04:27:08.414Z,9.09
2018-10-04T04:29:38.274Z,9.05
2018-10-04T04:32:08.060Z,9.08
2018-10-04T04:34:37.841Z,9.04
2018-10-04T04:37:07.641Z,9.06
2018-10-04T04:39:37.448Z,8.97
2018-10-04T04:42:07.340Z,8.94
2018-10-04T04:44:37.155Z,8.91
2018-10-04T04:47:07.376Z,8.91
2018-10-04T04:49:37.356Z,9.05
2018-10-04T04:52:07.373Z,9.09
2018-10-04T04:55:20.329Z,9.17
2018-10-04T04:57:51.693Z,9.27
2018-10-04T05:00:22.742Z,9.28
2018-10-04T05:02:53.076Z,9.31
2018-10-04T05:05:23.500Z,9.26
2018-10-04T05:07:54.806Z,9.23
2018-10-04T05:10:25.310Z,9.31
2018-10-04T05:12:55.951Z,9.21
2018-10-04T05:15:25.986Z,9.27
2018-10-04T05:17:55.871Z,9.30
2018-10-04T05:20:25.677Z,9.31
2018-10-04T05:22:55.506Z,9.28
2018-10-04T05:25:25.426Z,9.27
2018-10-04T05:27:55.237Z,9.25
2018-10-04T05:30:25.158Z,9.16
2018-10-04T05:32:55.083Z,9.20
2018-10-04T05:35:24.882Z,9.12
2018-10-04T05:37:54.932Z,9.04
2018-10-04T05:40:24.776Z,9.05
2018-10-04T05:42:54.621Z,8.95
2018-10-04T05:45:24.515Z,8.94
2018-10-04T05:47:54.476Z,8.84
2018-10-04T05:50:24.259Z,8.88
2018-10-04T05:52:54.764Z,8.88
2018-10-04T05:55:24.730Z,8.96
2018-10-04T05:57:54.530Z,8.90
2018-10-04T06:00:37.090Z,8.90
2018-10-04T06:03:07.092Z,8.98
2018-10-04T06:05:37.042Z,8.97
2018-10-04T06:08:07.055Z,8.96
2018-10-04T06:10:37.262Z,9.02
2018-10-04T06:13:07.139Z,9.04
2018-10-04T06:15:37.571Z,9.02
2018-10-04T06:18:07.626Z,9.08
2018-10-04T06:20:39.314Z,9.02
2018-10-04T06:23:09.303Z,9.10
2018-10-04T06:25:39.083Z,9.08
2018-10-04T06:28:08.834Z,9.03
2018-10-04T06:30:38.598Z,9.01
2018-10-04T06:33:08.352Z,9.00
2018-10-04T06:35:38.142Z,8.97
2018-10-04T06:38:07.889Z,9.03
2018-10-04T06:40:37.633Z,8.96
2018-10-04T06:43:07.451Z,9.01
2018-10-04T06:45:37.255Z,8.94
2018-10-04T06:48:07.275Z,9.02
2018-10-04T06:50:37.115Z,9.02
2018-10-04T06:53:06.897Z,8.94
2018-10-04T06:55:36.675Z,9.01
2018-10-04T06:58:06.452Z,9.05
2018-10-04T07:00:36.438Z,9.06
2018-10-04T07:03:06.593Z,9.05
2018-10-04T07:05:36.369Z,9.09
2018-10-04T07:08:06.374Z,9.10
2018-10-04T07:10:36.331Z,9.15
2018-10-04T07:13:06.500Z,9.17
2018-10-04T07:15:36.305Z,9.13
2018-10-04T07:18:06.305Z,9.27
2018-10-04T07:20:36.288Z,9.37
2018-10-04T07:23:06.295Z,9.40
2018-10-04T07:25:36.120Z,9.60
2018-10-04T07:28:06.048Z,9.66
2018-10-04T07:30:35.847Z,9.73
2018-10-04T07:33:05.702Z,9.63
2018-10-04T07:35:35.470Z,9.75
2018-10-04T07:38:05.272Z,9.70
2018-10-04T07:40:35.084Z,9.72
2018-10-04T07:43:04.870Z,9.75
2018-10-04T07:45:34.707Z,9.74
2018-10-04T07:48:04.717Z,9.81
2018-10-04T07:50:34.545Z,9.88
2018-10-04T07:53:04.350Z,9.95
2018-10-04T07:55:34.133Z,9.93
2018-10-04T07:58:03.946Z,10.01
2018-10-04T08:00:33.820Z,10.18
2018-10-04T08:03:03.654Z,10.36
2018-10-04T08:05:33.470Z,10.46
2018-10-04T08:08:03.280Z,10.61
2018-10-04T08:10:33.038Z,10.61
2018-10-04T08:13:02.846Z,10.63
2018-10-04T08:15:32.731Z,10.68
2018-10-04T08:18:02.668Z,10.73
2018-10-04T08:20:32.524Z,10.90
2018-10-04T08:23:02.339Z,10.79
2018-10-04T08:25:32.164Z,10.96
2018-10-04T08:28:01.950Z,11.02
2018-10-04T08:30:31.730Z,11.02
2018-10-04T08:33:01.578Z,11.08
2018-10-04T08:35:31.417Z,11.16
2018-10-04T08:38:01.264Z,11.24
2018-10-04T08:40:31.066Z,11.30
2018-10-04T08:43:00.857Z,11.45
2018-10-04T08:45:31.086Z,11.56
2018-10-04T08:48:00.933Z,11.48
2018-10-04T08:50:31.008Z,11.51
2018-10-04T08:53:00.883Z,11.44
2018-10-04T08:55:37.619Z,11.29
2018-10-04T08:58:07.689Z,11.17
2018-10-04T09:00:37.538Z,11.22
2018-10-04T09:03:07.658Z,11.25
2018-10-04T09:05:37.489Z,11.48
2018-10-04T09:08:07.376Z,11.72
2018-10-04T09:10:37.203Z,11.87
2018-10-04T09:13:07.358Z,12.07
2018-10-04T09:15:37.284Z,12.35
2018-10-04T09:18:07.130Z,12.72
2018-10-04T09:20:37.006Z,13.04
2018-10-04T09:23:06.905Z,12.88
2018-10-04T09:25:37.060Z,12.90
2018-10-04T09:28:10.981Z,13.20
2018-10-04T09:30:45.971Z,13.52
2018-10-04T09:33:15.788Z,13.70
2018-10-04T09:35:45.723Z,13.81
2018-10-04T09:38:15.557Z,13.74
2018-10-04T09:40:45.388Z,13.75
2018-10-04T09:43:15.503Z,14.25
2018-10-04T09:45:45.771Z,13.95
2018-10-04T09:48:15.673Z,14.38
2018-10-04T09:50:45.731Z,14.42
2018-10-04T09:53:15.570Z,14.43
2018-10-04T09:55:50.695Z,14.55
2018-10-04T09:58:20.469Z,14.33
2018-10-04T10:00:55.548Z,14.26
2018-10-04T10:03:25.348Z,14.64
2018-10-04T10:05:55.214Z,14.46
2018-10-04T10:08:24.990Z,14.46
2018-10-04T10:10:54.804Z,14.28
2018-10-04T10:13:24.749Z,14.04
2018-10-04T10:15:54.553Z,14.10
2018-10-04T10:18:24.446Z,14.34
2018-10-04T10:20:54.262Z,14.65
2018-10-04T10:23:24.286Z,14.60
2018-10-04T10:25:54.246Z,14.71
2018-10-04T10:28:24.050Z,14.90
2018-10-04T10:30:53.854Z,14.99
2018-10-04T10:33:23.720Z,15.25
2018-10-04T10:35:53.539Z,15.19
2018-10-04T10:38:23.372Z,15.33
2018-10-04T10:40:53.456Z,15.34
2018-10-04T10:43:23.286Z,15.51
2018-10-04T10:45:53.259Z,15.51
2018-10-04T10:48:23.454Z,15.57
2018-10-04T10:50:53.590Z,15.51
2018-10-04T10:53:23.521Z,15.62
2018-10-04T10:55:53.477Z,15.51
2018-10-04T10:58:23.339Z,15.81
2018-10-04T11:00:53.180Z,15.86
2018-10-04T11:03:22.907Z,15.66
2018-10-04T11:05:52.672Z,15.75
2018-10-04T11:08:22.512Z,16.04
2018-10-04T11:10:52.470Z,15.91
2018-10-04T11:13:22.425Z,16.14
2018-10-04T11:15:52.223Z,16.27
2018-10-04T11:18:22.122Z,16.44
2018-10-04T11:20:52.005Z,16.19
2018-10-04T11:23:21.815Z,16.27
2018-10-04T11:25:51.665Z,16.39
2018-10-04T11:28:21.485Z,16.53
2018-10-04T11:30:51.321Z,16.50
2018-10-04T11:33:21.161Z,16.66
2018-10-04T11:35:50.959Z,16.54
2018-10-04T11:38:20.821Z,16.50
2018-10-04T11:40:50.754Z,16.81
2018-10-04T11:43:23.291Z,16.86
2018-10-04T11:45:53.369Z,16.96
2018-10-04T11:48:26.543Z,16.97
2018-10-04T11:50:56.545Z,16.91
2018-10-04T11:53:26.524Z,17.17
2018-10-04T11:55:56.382Z,17.20
2018-10-04T11:58:26.203Z,17.14
2018-10-04T12:00:56.093Z,17.17
2018-10-04T12:03:26.068Z,17.08
2018-10-04T12:05:55.989Z,17.04
2018-10-04T12:08:25.834Z,17.11
2018-10-04T12:10:55.648Z,17.38
2018-10-04T12:13:25.437Z,17.45
2018-10-04T12:15:55.425Z,17.37
2018-10-04T12:18:25.264Z,17.37
2018-10-04T12:20:55.347Z,17.50
2018-10-04T12:23:25.139Z,17.52
2018-10-04T12:25:54.910Z,17.40
2018-10-04T12:28:24.840Z,17.43
2018-10-04T12:30:54.709Z,17.59
2018-10-04T12:33:24.681Z,17.68
2018-10-04T12:35:54.532Z,17.95
2018-10-04T12:38:24.322Z,17.85
2018-10-04T12:40:54.261Z,17.77
2018-10-04T12:43:24.103Z,17.87
2018-10-04T12:45:54.205Z,18.00
2018-10-04T12:48:24.087Z,17.99
2018-10-04T12:50:54.100Z,17.82
2018-10-04T12:53:23.896Z,17.92
2018-10-04T12:55:53.695Z,17.94
2018-10-04T12:58:23.639Z,17.96
2018-10-04T13:00:53.411Z,17.92
2018-10-04T13:03:23.426Z,17.82
2018-10-04T13:05:53.233Z,17.84
2018-10-04T13:08:23.105Z,18.04
2018-10-04T13:10:53.147Z,17.94
2018-10-04T13:13:23.065Z,17.98
2018-10-04T13:15:52.950Z,17.99
2018-10-04T13:18:22.765Z,18.10
2018-10-04T13:20:52.733Z,17.94
2018-10-04T13:23:22.776Z,17.97
2018-10-04T13:25:52.624Z,17.94
2018-10-04T13:28:22.450Z,17.99
2018-10-04T13:30:52.334Z,18.11
2018-10-04T13:33:22.157Z,17.91
2018-10-04T13:35:52.086Z,18.01
2018-10-04T13:38:21.851Z,17.99
2018-10-04T13:40:51.714Z,18.09
2018-10-04T13:43:21.642Z,17.94
2018-10-04T13:45:51.551Z,17.93
2018-10-04T13:48:21.354Z,18.06
2018-10-04T13:50:51.147Z,18.20
2018-10-04T13:53:21.026Z,18.09
2018-10-04T13:55:50.916Z,18.00
2018-10-04T13:58:20.786Z,17.92
2018-10-04T14:00:50.597Z,17.97
2018-10-04T14:03:20.526Z,17.91
2018-10-04T14:05:50.396Z,18.04
2018-10-04T14:08:21.069Z,18.16
2018-10-04T14:10:50.857Z,17.90
2018-10-04T14:13:20.679Z,17.90
2018-10-04T14:15:50.916Z,17.97
2018-10-04T14:18:20.731Z,18.05
2018-10-04T14:20:50.583Z,18.15
2018-10-04T14:23:20.405Z,18.24
2018-10-04T14:25:50.543Z,18.21
2018-10-04T14:28:20.488Z,18.22
2018-10-04T14:30:50.504Z,18.20
2018-10-04T14:33:20.275Z,18.04
2018-10-04T14:35:50.125Z,17.92
2018-10-04T14:38:19.937Z,17.87
2018-10-04T14:40:49.705Z,17.95
2018-10-04T14:43:19.550Z,18.03
2018-10-04T14:45:49.446Z,18.14
2018-10-04T14:48:19.476Z,18.06
2018-10-04T14:50:49.247Z,18.03
2018-10-04T14:53:19.445Z,18.09
2018-10-04T14:55:49.319Z,18.09
2018-10-04T14:58:19.129Z,17.99
2018-10-04T15:00:48.898Z,18.01
2018-10-04T15:03:18.712Z,17.99
2018-10-04T15:05:48.688Z,18.02
2018-10-04T15:08:18.477Z,18.13
2018-10-04T15:10:48.331Z,18.09
2018-10-04T15:13:18.108Z,18.03
2018-10-04T15:15:47.923Z,17.91
2018-10-04T15:18:17.764Z,17.98
2018-10-04T15:20:47.562Z,17.95
2018-10-04T15:23:17.356Z,17.89
2018-10-04T15:25:47.182Z,17.93
2018-10-04T15:28:16.960Z,17.97
2018-10-04T15:30:46.740Z,17.88
2018-10-04T15:33:16.716Z,17.87
2018-10-04T15:35:46.656Z,17.80
2018-10-04T15:38:16.520Z,17.80
2018-10-04T15:40:46.360Z,17.72
2018-10-04T15:43:16.180Z,17.70
2018-10-04T15:45:45.951Z,17.64
2018-10-04T15:48:15.871Z,17.63
2018-10-04T15:50:45.632Z,17.61
2018-10-04T15:53:15.403Z,17.57
2018-10-04T15:55:45.166Z,17.45
2018-10-04T15:58:14.985Z,17.39
2018-10-04T16:00:45.027Z,17.33
2018-10-04T16:03:14.839Z,17.30
2018-10-04T16:05:44.695Z,17.20
2018-10-04T16:08:14.477Z,17.08
2018-10-04T16:10:44.470Z,17.03
2018-10-04T16:13:14.499Z,16.94
2018-10-04T16:15:49.323Z,16.94
2018-10-04T16:18:19.353Z,16.81
2018-10-04T16:20:49.131Z,16.77
2018-10-04T16:23:18.949Z,16.73
2018-10-04T16:25:48.745Z,16.66
2018-10-04T16:28:18.586Z,16.61
2018-10-04T16:30:48.448Z,16.48
2018-10-04T16:33:18.731Z,16.40
2018-10-04T16:35:48.531Z,16.45
2018-10-04T16:38:18.475Z,16.37
2018-10-04T16:40:48.438Z,16.28
2018-10-04T16:43:18.312Z,16.29
2018-10-04T16:45:48.135Z,16.21
2018-10-04T16:48:17.943Z,16.09
2018-10-04T16:50:47.791Z,16.00
2018-10-04T16:53:17.591Z,15.91
2018-10-04T16:55:47.568Z,15.91
2018-10-04T16:58:17.393Z,15.70
2018-10-04T17:00:47.376Z,15.68
2018-10-04T17:03:17.205Z,15.57
2018-10-04T17:05:47.221Z,15.52
2018-10-04T17:08:17.036Z,15.39
2018-10-04T17:10:46.838Z,15.35
2018-10-04T17:13:16.721Z,15.19
2018-10-04T17:15:46.619Z,15.09
2018-10-04T17:18:16.484Z,15.08
2018-10-04T17:20:46.367Z,14.93
2018-10-04T17:23:16.157Z,14.94
2018-10-04T17:25:45.976Z,14.85
2018-10-04T17:28:15.816Z,14.76
2018-10-04T17:30:45.662Z,14.70
2018-10-04T17:33:15.482Z,14.61
2018-10-04T17:35:45.425Z,14.54
2018-10-04T17:38:15.396Z,14.56
2018-10-04T17:40:45.165Z,14.51
2018-10-04T17:43:15.212Z,14.36
2018-10-04T17:45:45.024Z,14.32
2018-10-04T17:48:14.978Z,14.37
2018-10-04T17:50:44.763Z,14.29
2018-10-04T17:53:14.547Z,14.30
2018-10-04T17:55:44.350Z,14.35
2018-10-04T17:58:14.190Z,14.31
2018-10-04T18:00:44.261Z,14.26
2018-10-04T18:03:14.102Z,14.22
2018-10-04T18:05:43.941Z,14.18
2018-10-04T18:08:13.770Z,14.13
2018-10-04T18:10:45.344Z,14.05
2018-10-04T18:13:15.262Z,13.97
2018-10-04T18:15:45.060Z,13.90
2018-10-04T18:18:14.866Z,13.87
2018-10-04T18:20:44.662Z,13.90
2018-10-04T18:23:14.436Z,13.89
2018-10-04T18:25:44.242Z,13.95
2018-10-04T18:28:14.065Z,13.83
2018-10-04T18:30:43.865Z,13.80
2018-10-04T18:33:13.692Z,13.75
2018-10-04T18:35:43.690Z,13.73
2018-10-04T18:38:13.546Z,13.69
2018-10-04T18:40:43.374Z,13.66
2018-10-04T18:43:13.244Z,13.59
2018-10-04T18:45:43.083Z,13.68
2018-10-04T18:48:13.392Z,13.66
2018-10-04T18:50:43.208Z,13.65
2018-10-04T18:53:13.074Z,13.73
2018-10-04T18:55:43.074Z,13.44
2018-10-04T18:58:12.908Z,13.35
2018-10-04T19:00:42.862Z,13.26
2018-10-04T19:03:12.668Z,13.11
2018-10-04T19:05:42.546Z,13.04
2018-10-04T19:08:12.577Z,13.09
2018-10-04T19:11:21.896Z,12.97
2018-10-04T19:13:51.728Z,12.96
2018-10-04T19:16:21.598Z,12.92
2018-10-04T19:18:51.432Z,13.03
2018-10-04T19:21:21.305Z,13.11
2018-10-04T19:23:52.012Z,13.03
2018-10-04T19:26:21.870Z,12.82
2018-10-04T19:28:51.642Z,12.68
2018-10-04T19:31:21.512Z,12.75
2018-10-04T19:33:51.417Z,12.70
2018-10-04T19:36:21.255Z,12.60
2018-10-04T19:38:51.282Z,12.49
2018-10-04T19:41:21.195Z,12.42
2018-10-04T19:43:51.066Z,12.39
2018-10-04T19:46:20.933Z,12.39
2018-10-04T19:48:50.708Z,12.34
2018-10-04T19:51:20.537Z,12.33
2018-10-04T19:53:50.308Z,12.44
2018-10-04T19:56:20.116Z,12.54
2018-10-04T19:58:50.068Z,12.55
2018-10-04T20:01:19.892Z,12.65
2018-10-04T20:03:49.856Z,12.62
2018-10-04T20:06:19.795Z,12.63
2018-10-04T20:08:49.654Z,12.48
2018-10-04T20:14:55.842Z,12.46
2018-10-04T20:17:25.674Z,12.39
2018-10-04T20:19:55.482Z,12.62
2018-10-04T20:22:25.302Z,12.53
2018-10-04T20:24:55.340Z,12.41
2018-10-04T20:27:25.121Z,12.25
2018-10-04T20:29:54.960Z,12.20
2018-10-04T20:32:24.754Z,12.14
2018-10-04T20:34:54.640Z,11.97
2018-10-04T20:37:24.876Z,11.89
2018-10-04T20:39:54.742Z,11.89
2018-10-04T20:42:24.649Z,12.02
2018-10-04T20:44:54.650Z,11.97
2018-10-04T20:47:25.102Z,12.05
2018-10-04T20:49:55.434Z,11.91
2018-10-04T20:52:25.618Z,11.92
2018-10-04T20:54:55.856Z,11.88
2018-10-04T20:57:25.746Z,11.82
2018-10-04T20:59:55.977Z,11.75
2018-10-04T21:02:25.959Z,11.64
2018-10-04T21:04:55.788Z,11.60
2018-10-04T21:07:25.695Z,11.79
2018-10-04T21:09:55.589Z,11.83
2018-10-04T21:16:01.847Z,11.63
2018-10-04T21:18:31.723Z,11.60
2018-10-04T21:21:01.626Z,11.54
2018-10-04T21:23:31.549Z,11.44
2018-10-04T21:26:01.392Z,11.40
2018-10-04T21:28:32.153Z,11.28
2018-10-04T21:31:01.937Z,11.24
2018-10-04T21:33:31.767Z,11.24
2018-10-04T21:36:01.655Z,11.25
2018-10-04T21:38:31.483Z,11.34
2018-10-04T21:41:01.419Z,11.23
2018-10-04T21:43:31.255Z,11.16
2018-10-04T21:46:01.172Z,11.10
2018-10-04T21:48:31.021Z,11.08
2018-10-04T21:51:00.809Z,11.08
2018-10-04T21:53:30.850Z,10.99
2018-10-04T21:56:00.650Z,10.93
2018-10-04T21:58:30.379Z,10.90
2018-10-04T22:01:03.965Z,10.85
2018-10-04T22:03:33.787Z,10.90
2018-10-04T22:06:03.699Z,10.80
2018-10-04T22:08:33.477Z,10.74
2018-10-04T22:11:03.353Z,10.76
2018-10-04T22:13:33.075Z,10.80
2018-10-04T22:16:02.797Z,10.79
2018-10-04T22:18:32.702Z,10.78
2018-10-04T22:21:02.919Z,10.75
2018-10-04T22:23:32.983Z,10.73
2018-10-04T22:26:03.338Z,10.74
2018-10-04T22:28:33.251Z,10.69
2018-10-04T22:31:03.049Z,10.70
2018-10-04T22:33:32.802Z,10.69
2018-10-04T22:36:02.931Z,10.66
2018-10-04T22:38:32.691Z,10.65
2018-10-04T22:41:02.502Z,10.66
2018-10-04T22:43:32.237Z,10.62
2018-10-04T22:46:01.993Z,10.81
2018-10-04T22:48:31.751Z,10.74
2018-10-04T22:51:01.480Z,10.75
2018-10-04T22:53:31.407Z,10.58
2018-10-04T22:56:01.460Z,10.52
2018-10-04T22:58:31.302Z,10.49
2018-10-04T23:01:01.041Z,10.53
2018-10-04T23:03:30.889Z,10.46
2018-10-04T23:06:00.686Z,10.44
2018-10-04T23:08:30.520Z,10.38
2018-10-04T23:11:00.386Z,10.48
2018-10-04T23:13:30.583Z,10.53
2018-10-04T23:16:00.598Z,10.49
2018-10-04T23:18:30.780Z,10.45
2018-10-04T23:21:00.598Z,10.45
2018-10-04T23:23:30.524Z,10.47
2018-10-04T23:26:00.419Z,10.47
2018-10-04T23:28:30.262Z,10.42
2018-10-04T23:31:00.282Z,10.43
2018-10-04T23:33:30.161Z,10.39
2018-10-04T23:36:00.077Z,10.36
2018-10-04T23:38:29.929Z,10.29
2018-10-04T23:40:59.848Z,10.28
2018-10-04T23:43:29.908Z,10.35
2018-10-04T23:45:59.879Z,10.52
2018-10-04T23:48:29.741Z,10.52
2018-10-04T23:50:59.680Z,10.50
2018-10-04T23:53:29.784Z,10.36
2018-10-04T23:55:59.820Z,10.28
2018-10-04T23:58:30.330Z,10.33
